2026/08/30

Sensor Date Temp./Hum.
h3-hermonville 30-08-2026 - 23:59 19.6°C / 77%
h4-hermonville 30-08-2026 - 23:58 20.1°C / 74.5%
h1-hermonville 30-08-2026 - 23:53 19.8°C / 77%
h2-hermonville 30-08-2026 - 23:53 19.9°C / 77%
h3-hermonville 30-08-2026 - 23:49 19.8°C / 76.5%
h4-hermonville 30-08-2026 - 23:48 20.2°C / 74%
h1-hermonville 30-08-2026 - 23:43 19.9°C / 76.5%
h2-hermonville 30-08-2026 - 23:43 20°C / 76%
h3-hermonville 30-08-2026 - 23:39 20°C / 76%
h4-hermonville 30-08-2026 - 23:38 20.3°C / 73.5%
h1-hermonville 30-08-2026 - 23:33 20.2°C / 75.5%
h2-hermonville 30-08-2026 - 23:33 20.2°C / 75%
h3-hermonville 30-08-2026 - 23:29 20.1°C / 75%
h4-hermonville 30-08-2026 - 23:28 20.5°C / 72.5%
h1-hermonville 30-08-2026 - 23:23 20.3°C / 74.5%
h2-hermonville 30-08-2026 - 23:23 20.3°C / 74.5%
h3-hermonville 30-08-2026 - 23:19 20.3°C / 74%
h4-hermonville 30-08-2026 - 23:18 20.7°C / 72%
h1-hermonville 30-08-2026 - 23:13 20.4°C / 73.5%
h2-hermonville 30-08-2026 - 23:13 20.6°C / 73.5%
h3-hermonville 30-08-2026 - 23:09 20.6°C / 72.5%
h4-hermonville 30-08-2026 - 23:08 20.8°C / 70.5%
h1-hermonville 30-08-2026 - 23:03 20.6°C / 72%
h2-hermonville 30-08-2026 - 23:03 20.6°C / 71.5%
h3-hermonville 30-08-2026 - 22:59 20.7°C / 70.5%
h4-hermonville 30-08-2026 - 22:58 20.8°C / 69.5%
h1-hermonville 30-08-2026 - 22:53 20.7°C / 70%
h2-hermonville 30-08-2026 - 22:53 20.9°C / 70%
h3-hermonville 30-08-2026 - 22:49 20.9°C / 68.5%
h4-hermonville 30-08-2026 - 22:48 20.9°C / 67.5%
h2-hermonville 30-08-2026 - 22:43 20.8°C / 68%
h1-hermonville 30-08-2026 - 22:43 20.7°C / 68.5%
h3-hermonville 30-08-2026 - 22:39 20.7°C / 66.5%
h4-hermonville 30-08-2026 - 22:38 20.8°C / 65.5%
h2-hermonville 30-08-2026 - 22:33 20.6°C / 66%
h1-hermonville 30-08-2026 - 22:33 20.7°C / 66.5%
h3-hermonville 30-08-2026 - 22:29 20.7°C / 65%
h4-hermonville 30-08-2026 - 22:28 20.7°C / 64.5%
h2-hermonville 30-08-2026 - 22:23 20.7°C / 66%
h1-hermonville 30-08-2026 - 22:23 20.7°C / 66%
h3-hermonville 30-08-2026 - 22:19 20.6°C / 65%
h4-hermonville 30-08-2026 - 22:18 20.8°C / 64.5%
h1-hermonville 30-08-2026 - 22:13 20.6°C / 66.5%
h2-hermonville 30-08-2026 - 22:13 20.3°C / 67.5%
h3-hermonville 30-08-2026 - 22:09 20.7°C / 64.5%
h4-hermonville 30-08-2026 - 22:08 20.8°C / 64.5%
h1-hermonville 30-08-2026 - 22:03 20.6°C / 66.5%
h2-hermonville 30-08-2026 - 22:03 20.3°C / 69%
h3-hermonville 30-08-2026 - 21:59 20.8°C / 64%
h4-hermonville 30-08-2026 - 21:58 20.8°C / 64.5%
h2-hermonville 30-08-2026 - 21:53 20.2°C / 69%
h1-hermonville 30-08-2026 - 21:53 20.7°C / 66.5%
h3-hermonville 30-08-2026 - 21:49 20.7°C / 65.5%
h1-hermonville 30-08-2026 - 21:43 20.7°C / 68%
h2-hermonville 30-08-2026 - 21:43 20.3°C / 70%
h3-hermonville 30-08-2026 - 21:39 21°C / 64%
h4-hermonville 30-08-2026 - 21:38 20.9°C / 64%
h2-hermonville 30-08-2026 - 21:33 20.6°C / 68%
h1-hermonville 30-08-2026 - 21:33 20.7°C / 67.5%
h3-hermonville 30-08-2026 - 21:29 20.6°C / 67%
h4-hermonville 30-08-2026 - 21:28 21°C / 66%
h2-hermonville 30-08-2026 - 21:23 20.8°C / 69.5%
h1-hermonville 30-08-2026 - 21:23 20.8°C / 68%
h3-hermonville 30-08-2026 - 21:19 20.9°C / 64%
h4-hermonville 30-08-2026 - 21:18 21.2°C / 64.5%
h1-hermonville 30-08-2026 - 21:13 21°C / 66%
h2-hermonville 30-08-2026 - 21:13 20.9°C / 67%
h3-hermonville 30-08-2026 - 21:09 21°C / 65%
h2-hermonville 30-08-2026 - 21:03 21.1°C / 68.5%
h1-hermonville 30-08-2026 - 21:03 21°C / 67.5%
h3-hermonville 30-08-2026 - 20:59 21.3°C / 65.5%
h4-hermonville 30-08-2026 - 20:58 21.3°C / 64%
h1-hermonville 30-08-2026 - 20:53 21°C / 66%
h3-hermonville 30-08-2026 - 20:49 21.3°C / 64.5%
h4-hermonville 30-08-2026 - 20:48 21.4°C / 64.5%
h1-hermonville 30-08-2026 - 20:43 21.2°C / 66%
h2-hermonville 30-08-2026 - 20:43 21.5°C / 66.5%
h3-hermonville 30-08-2026 - 20:39 21.5°C / 64%
h4-hermonville 30-08-2026 - 20:38 21.5°C / 63%
h1-hermonville 30-08-2026 - 20:33 21.4°C / 64%
h2-hermonville 30-08-2026 - 20:33 22°C / 64%
h3-hermonville 30-08-2026 - 20:29 21.7°C / 61.5%
h4-hermonville 30-08-2026 - 20:28 21.6°C / 61.5%
h1-hermonville 30-08-2026 - 20:23 21.6°C / 62.5%
h3-hermonville 30-08-2026 - 20:19 22°C / 60.5%
h4-hermonville 30-08-2026 - 20:18 21.8°C / 61%
h1-hermonville 30-08-2026 - 20:13 21.9°C / 61%
h3-hermonville 30-08-2026 - 20:09 22.3°C / 58%
h4-hermonville 30-08-2026 - 20:08 21.9°C / 59%
h1-hermonville 30-08-2026 - 20:03 22°C / 59.5%
h2-hermonville 30-08-2026 - 20:03 22.6°C / 57.5%
h3-hermonville 30-08-2026 - 19:59 22.3°C / 57.5%
h4-hermonville 30-08-2026 - 19:58 21.9°C / 59.5%
h1-hermonville 30-08-2026 - 19:53 22.2°C / 60.5%
h3-hermonville 30-08-2026 - 19:49 22.4°C / 58.5%
h4-hermonville 30-08-2026 - 19:48 22°C / 59.5%
h2-hermonville 30-08-2026 - 19:43 22.6°C / 58%
h1-hermonville 30-08-2026 - 19:43 22.1°C / 60%
h3-hermonville 30-08-2026 - 19:39 22.6°C / 58%
h2-hermonville 30-08-2026 - 19:33 22.7°C / 58%
h1-hermonville 30-08-2026 - 19:33 22.3°C / 60%
h3-hermonville 30-08-2026 - 19:29 22.7°C / 58%
h4-hermonville 30-08-2026 - 19:28 22°C / 59.5%
h1-hermonville 30-08-2026 - 19:23 22.3°C / 59%
h3-hermonville 30-08-2026 - 19:19 22.7°C / 57.5%
h4-hermonville 30-08-2026 - 19:18 22.2°C / 59%
h1-hermonville 30-08-2026 - 19:13 22.5°C / 59%
h3-hermonville 30-08-2026 - 19:09 22.8°C / 57%
h4-hermonville 30-08-2026 - 19:08 22.2°C / 59.5%
h1-hermonville 30-08-2026 - 19:03 22.5°C / 59%
h2-hermonville 30-08-2026 - 19:03 22.8°C / 58%
h3-hermonville 30-08-2026 - 18:59 22.7°C / 58%
h1-hermonville 30-08-2026 - 18:53 22.5°C / 59%
h2-hermonville 30-08-2026 - 18:53 22.8°C / 57.5%
h3-hermonville 30-08-2026 - 18:49 22.7°C / 57.5%
h4-hermonville 30-08-2026 - 18:48 22.3°C / 58.5%
h2-hermonville 30-08-2026 - 18:43 23°C / 58%
h1-hermonville 30-08-2026 - 18:43 22.5°C / 59%
h3-hermonville 30-08-2026 - 18:39 22.8°C / 58%
h4-hermonville 30-08-2026 - 18:38 22.3°C / 59%
h1-hermonville 30-08-2026 - 18:33 22.5°C / 58.5%
h3-hermonville 30-08-2026 - 18:29 22.9°C / 56.5%
h1-hermonville 30-08-2026 - 18:23 22.6°C / 58.5%
h2-hermonville 30-08-2026 - 18:23 23°C / 57%
h3-hermonville 30-08-2026 - 18:19 22.8°C / 56%
h4-hermonville 30-08-2026 - 18:18 22.5°C / 57.5%
h1-hermonville 30-08-2026 - 18:13 22.7°C / 58%
h2-hermonville 30-08-2026 - 18:13 23.1°C / 56.5%
h3-hermonville 30-08-2026 - 18:09 22.9°C / 56%
h4-hermonville 30-08-2026 - 18:08 22.5°C / 57.5%
h1-hermonville 30-08-2026 - 18:03 22.7°C / 57.5%
h2-hermonville 30-08-2026 - 18:03 23°C / 56.5%
h3-hermonville 30-08-2026 - 17:59 22.9°C / 56%
h4-hermonville 30-08-2026 - 17:58 22.5°C / 57%
h2-hermonville 30-08-2026 - 17:53 23°C / 55.5%
h1-hermonville 30-08-2026 - 17:53 22.8°C / 57.5%
h3-hermonville 30-08-2026 - 17:49 23°C / 55.5%
h4-hermonville 30-08-2026 - 17:48 22.7°C / 57%
h1-hermonville 30-08-2026 - 17:43 22.9°C / 58%
h2-hermonville 30-08-2026 - 17:43 23.2°C / 56.5%
h3-hermonville 30-08-2026 - 17:39 23.1°C / 56.5%
h4-hermonville 30-08-2026 - 17:38 22.7°C / 58%
h1-hermonville 30-08-2026 - 17:33 22.9°C / 57.5%
h2-hermonville 30-08-2026 - 17:33 23.2°C / 55.5%
h3-hermonville 30-08-2026 - 17:29 23.2°C / 56.5%
h1-hermonville 30-08-2026 - 17:23 22.9°C / 57.5%
h2-hermonville 30-08-2026 - 17:23 23.2°C / 56.5%
h3-hermonville 30-08-2026 - 17:19 23.1°C / 57.5%
h4-hermonville 30-08-2026 - 17:18 22.6°C / 59%
h2-hermonville 30-08-2026 - 17:13 23.3°C / 58%
h1-hermonville 30-08-2026 - 17:13 23°C / 59%
h3-hermonville 30-08-2026 - 17:09 23°C / 58%
h4-hermonville 30-08-2026 - 17:08 22.7°C / 59%
h2-hermonville 30-08-2026 - 17:03 23.3°C / 57.5%
h1-hermonville 30-08-2026 - 17:03 23°C / 59%
h3-hermonville 30-08-2026 - 16:59 22.9°C / 57.5%
h4-hermonville 30-08-2026 - 16:58 22.7°C / 58.5%
h1-hermonville 30-08-2026 - 16:53 23°C / 59%
h2-hermonville 30-08-2026 - 16:53 23.4°C / 57.5%
h3-hermonville 30-08-2026 - 16:49 22.9°C / 58.5%
h2-hermonville 30-08-2026 - 16:43 23.3°C / 58%
h1-hermonville 30-08-2026 - 16:43 22.9°C / 59%
h3-hermonville 30-08-2026 - 16:39 23°C / 57%
h1-hermonville 30-08-2026 - 16:33 23°C / 57.5%
h2-hermonville 30-08-2026 - 16:33 23.4°C / 56.5%
h3-hermonville 30-08-2026 - 16:29 23°C / 56.5%
h2-hermonville 30-08-2026 - 16:23 23.5°C / 55%
h1-hermonville 30-08-2026 - 16:23 23.1°C / 57%
h4-hermonville 30-08-2026 - 16:18 22.7°C / 58%
h1-hermonville 30-08-2026 - 16:13 23.2°C / 59%
h2-hermonville 30-08-2026 - 16:13 23.6°C / 57.5%
h3-hermonville 30-08-2026 - 16:09 23.2°C / 56%
h1-hermonville 30-08-2026 - 16:03 23.1°C / 57.5%
h2-hermonville 30-08-2026 - 16:03 23.7°C / 55.5%
h3-hermonville 30-08-2026 - 15:59 23.3°C / 54.5%
h4-hermonville 30-08-2026 - 15:58 22.7°C / 58%
h2-hermonville 30-08-2026 - 15:53 23.6°C / 55.5%
h1-hermonville 30-08-2026 - 15:53 23°C / 58%
h3-hermonville 30-08-2026 - 15:49 23.3°C / 56.5%
h1-hermonville 30-08-2026 - 15:43 23°C / 61%
h3-hermonville 30-08-2026 - 15:39 23.1°C / 60.5%
h4-hermonville 30-08-2026 - 15:38 22.6°C / 63%
h1-hermonville 30-08-2026 - 15:33 22.7°C / 62.5%
h2-hermonville 30-08-2026 - 15:33 23.2°C / 60.5%
h3-hermonville 30-08-2026 - 15:29 22.9°C / 61.5%
h4-hermonville 30-08-2026 - 15:28 22.5°C / 63%
h1-hermonville 30-08-2026 - 15:23 22.6°C / 64.5%
h2-hermonville 30-08-2026 - 15:23 23.2°C / 62%
h3-hermonville 30-08-2026 - 15:19 22.5°C / 62.5%
h4-hermonville 30-08-2026 - 15:18 22.4°C / 63.5%
h1-hermonville 30-08-2026 - 15:13 22.4°C / 65.5%
h2-hermonville 30-08-2026 - 15:13 22.6°C / 65%
h3-hermonville 30-08-2026 - 15:09 22.3°C / 65%
h4-hermonville 30-08-2026 - 15:08 22.1°C / 65.5%
h1-hermonville 30-08-2026 - 15:03 22.2°C / 67.5%
h3-hermonville 30-08-2026 - 14:59 22.1°C / 66.5%
h1-hermonville 30-08-2026 - 14:53 22°C / 67%
h3-hermonville 30-08-2026 - 14:49 21.9°C / 67%
h4-hermonville 30-08-2026 - 14:48 22°C / 66%
h1-hermonville 30-08-2026 - 14:43 21.9°C / 68%
h2-hermonville 30-08-2026 - 14:43 22°C / 67.5%
h3-hermonville 30-08-2026 - 14:39 21.7°C / 67.5%
h4-hermonville 30-08-2026 - 14:38 21.9°C / 66.5%
h1-hermonville 30-08-2026 - 14:33 21.7°C / 68.5%
h2-hermonville 30-08-2026 - 14:33 22°C / 67%
h4-hermonville 30-08-2026 - 14:28 21.7°C / 67%
h1-hermonville 30-08-2026 - 14:23 21.5°C / 68.5%
h2-hermonville 30-08-2026 - 14:23 21.6°C / 67.5%
h3-hermonville 30-08-2026 - 14:19 21.5°C / 66.5%
h4-hermonville 30-08-2026 - 14:18 21.3°C / 66.5%
h1-hermonville 30-08-2026 - 14:13 21.5°C / 67.5%
h2-hermonville 30-08-2026 - 14:13 21.5°C / 67%
h3-hermonville 30-08-2026 - 14:09 21.4°C / 66.5%
h4-hermonville 30-08-2026 - 14:08 21.4°C / 65.5%
h1-hermonville 30-08-2026 - 14:03 21.4°C / 67.5%
h3-hermonville 30-08-2026 - 13:59 21.4°C / 66.5%
h4-hermonville 30-08-2026 - 13:58 21.5°C / 65.5%
h2-hermonville 30-08-2026 - 13:53 21.4°C / 67.5%
h3-hermonville 30-08-2026 - 13:49 21.2°C / 66%
h1-hermonville 30-08-2026 - 13:43 21.3°C / 68%
h2-hermonville 30-08-2026 - 13:43 21.3°C / 67.5%
h3-hermonville 30-08-2026 - 13:39 21.3°C / 66.5%
h4-hermonville 30-08-2026 - 13:38 21.6°C / 65.5%
h1-hermonville 30-08-2026 - 13:33 21.4°C / 67%
h2-hermonville 30-08-2026 - 13:33 21.3°C / 66.5%
h3-hermonville 30-08-2026 - 13:29 21.3°C / 66.5%
h4-hermonville 30-08-2026 - 13:28 21.4°C / 65%
h1-hermonville 30-08-2026 - 13:23 21.2°C / 65.5%
h2-hermonville 30-08-2026 - 13:23 21.2°C / 65.5%
h4-hermonville 30-08-2026 - 13:18 21.3°C / 66%
h1-hermonville 30-08-2026 - 13:13 21°C / 69%
h2-hermonville 30-08-2026 - 13:13 21°C / 68.5%
h3-hermonville 30-08-2026 - 13:09 20.9°C / 68%
h4-hermonville 30-08-2026 - 13:08 21.1°C / 66.5%
h1-hermonville 30-08-2026 - 13:03 21°C / 68%
h2-hermonville 30-08-2026 - 13:03 20.8°C / 67.5%
h3-hermonville 30-08-2026 - 12:59 20.7°C / 69.5%
h4-hermonville 30-08-2026 - 12:58 21.1°C / 68%
h1-hermonville 30-08-2026 - 12:53 21°C / 69.5%
h2-hermonville 30-08-2026 - 12:53 20.9°C / 70.5%
h3-hermonville 30-08-2026 - 12:49 20.7°C / 69.5%
h4-hermonville 30-08-2026 - 12:48 21°C / 68.5%
h1-hermonville 30-08-2026 - 12:43 20.9°C / 70.5%
h2-hermonville 30-08-2026 - 12:43 20.6°C / 70.5%
h3-hermonville 30-08-2026 - 12:39 20.4°C / 70.5%
h4-hermonville 30-08-2026 - 12:38 20.8°C / 68.5%
h1-hermonville 30-08-2026 - 12:33 20.6°C / 71%
h2-hermonville 30-08-2026 - 12:33 20.4°C / 71%
h3-hermonville 30-08-2026 - 12:29 20.2°C / 71%
h4-hermonville 30-08-2026 - 12:28 20.5°C / 68.5%
h1-hermonville 30-08-2026 - 12:23 20.5°C / 71%
h2-hermonville 30-08-2026 - 12:23 20.2°C / 71%
h3-hermonville 30-08-2026 - 12:19 20.2°C / 72%
h4-hermonville 30-08-2026 - 12:18 20.7°C / 69%
h1-hermonville 30-08-2026 - 12:13 20.4°C / 72%
h2-hermonville 30-08-2026 - 12:13 20.2°C / 72.5%
h3-hermonville 30-08-2026 - 12:09 20°C / 72.5%
h4-hermonville 30-08-2026 - 12:08 20.7°C / 69%
h1-hermonville 30-08-2026 - 12:03 20.3°C / 72.5%
h2-hermonville 30-08-2026 - 12:03 20.1°C / 73%
h3-hermonville 30-08-2026 - 11:59 19.9°C / 73%
h4-hermonville 30-08-2026 - 11:58 20.5°C / 69%
h2-hermonville 30-08-2026 - 11:53 20°C / 73.5%
h1-hermonville 30-08-2026 - 11:53 20.3°C / 73%
h3-hermonville 30-08-2026 - 11:49 19.9°C / 74%
h4-hermonville 30-08-2026 - 11:48 21°C / 69%
h1-hermonville 30-08-2026 - 11:43 20.1°C / 74.5%
h2-hermonville 30-08-2026 - 11:43 19.7°C / 75%
h3-hermonville 30-08-2026 - 11:39 19.6°C / 74.5%
h1-hermonville 30-08-2026 - 11:33 19.8°C / 74.5%
h3-hermonville 30-08-2026 - 11:29 19.5°C / 75%
h4-hermonville 30-08-2026 - 11:28 20.7°C / 70%
h1-hermonville 30-08-2026 - 11:23 19.7°C / 75.5%
h3-hermonville 30-08-2026 - 11:19 19.3°C / 76%
h4-hermonville 30-08-2026 - 11:18 20.5°C / 71.5%
h1-hermonville 30-08-2026 - 11:13 19.6°C / 76%
h2-hermonville 30-08-2026 - 11:13 19.4°C / 76.5%
h3-hermonville 30-08-2026 - 11:09 19.2°C / 76%
h4-hermonville 30-08-2026 - 11:08 20.5°C / 70.5%
h1-hermonville 30-08-2026 - 11:03 19.7°C / 75.5%
h2-hermonville 30-08-2026 - 11:03 19.4°C / 76%
h3-hermonville 30-08-2026 - 10:59 19.3°C / 76.5%
h4-hermonville 30-08-2026 - 10:58 20.8°C / 70.5%
h2-hermonville 30-08-2026 - 10:53 19.3°C / 78.5%
h3-hermonville 30-08-2026 - 10:49 19.1°C / 78%
h4-hermonville 30-08-2026 - 10:48 21°C / 69.5%
h1-hermonville 30-08-2026 - 10:43 19.5°C / 77%
h2-hermonville 30-08-2026 - 10:43 19.1°C / 78%
h3-hermonville 30-08-2026 - 10:39 19.1°C / 77.5%
h4-hermonville 30-08-2026 - 10:38 21.9°C / 65.5%
h3-hermonville 30-08-2026 - 10:29 18.9°C / 78%
h4-hermonville 30-08-2026 - 10:28 22.6°C / 64.5%
h1-hermonville 30-08-2026 - 10:23 19.4°C / 77.5%
h2-hermonville 30-08-2026 - 10:23 19.1°C / 78.5%
h3-hermonville 30-08-2026 - 10:19 19°C / 79%
h4-hermonville 30-08-2026 - 10:18 21.4°C / 69.5%
h1-hermonville 30-08-2026 - 10:13 19.3°C / 78.5%
h2-hermonville 30-08-2026 - 10:13 18.9°C / 79%
h3-hermonville 30-08-2026 - 10:09 18.8°C / 79%
h4-hermonville 30-08-2026 - 10:08 20.8°C / 70%
h1-hermonville 30-08-2026 - 10:03 18.9°C / 79%
h2-hermonville 30-08-2026 - 10:03 18.7°C / 79.5%
h3-hermonville 30-08-2026 - 09:59 18.6°C / 79.5%
h4-hermonville 30-08-2026 - 09:58 20.8°C / 71%
h1-hermonville 30-08-2026 - 09:53 18.7°C / 78.5%
h2-hermonville 30-08-2026 - 09:53 18.6°C / 79.5%
h3-hermonville 30-08-2026 - 09:49 18.6°C / 79.5%
h4-hermonville 30-08-2026 - 09:48 20.6°C / 71.5%
h1-hermonville 30-08-2026 - 09:43 18.8°C / 80.5%
h2-hermonville 30-08-2026 - 09:43 18.6°C / 81.5%
h3-hermonville 30-08-2026 - 09:39 18.4°C / 81.5%
h4-hermonville 30-08-2026 - 09:38 19.5°C / 75.5%
h1-hermonville 30-08-2026 - 09:33 18.6°C / 81%
h2-hermonville 30-08-2026 - 09:33 18.2°C / 81.5%
h3-hermonville 30-08-2026 - 09:29 18.1°C / 81.5%
h4-hermonville 30-08-2026 - 09:28 19.2°C / 76%
h1-hermonville 30-08-2026 - 09:23 18.5°C / 82%
h2-hermonville 30-08-2026 - 09:23 18.2°C / 83%
h3-hermonville 30-08-2026 - 09:19 18.2°C / 83%
h4-hermonville 30-08-2026 - 09:18 19.6°C / 75.5%
h1-hermonville 30-08-2026 - 09:13 18.5°C / 82.5%
h2-hermonville 30-08-2026 - 09:13 18.2°C / 83.5%
h3-hermonville 30-08-2026 - 09:09 18.1°C / 84%
h4-hermonville 30-08-2026 - 09:08 20.4°C / 73.5%
h1-hermonville 30-08-2026 - 09:03 18.4°C / 83.5%
h2-hermonville 30-08-2026 - 09:03 18.1°C / 84.5%
h3-hermonville 30-08-2026 - 08:59 17.9°C / 84.5%
h4-hermonville 30-08-2026 - 08:58 20.6°C / 73.5%
h1-hermonville 30-08-2026 - 08:53 18.2°C / 84%
h2-hermonville 30-08-2026 - 08:53 17.8°C / 85%
h3-hermonville 30-08-2026 - 08:49 17.7°C / 85%
h4-hermonville 30-08-2026 - 08:48 20.3°C / 73.5%
h2-hermonville 30-08-2026 - 08:43 17.8°C / 85.5%
h3-hermonville 30-08-2026 - 08:39 17.7°C / 86%
h4-hermonville 30-08-2026 - 08:38 21°C / 72%
h1-hermonville 30-08-2026 - 08:33 17.8°C / 85.5%
h2-hermonville 30-08-2026 - 08:33 17.7°C / 86%
h3-hermonville 30-08-2026 - 08:29 17.6°C / 86.5%
h4-hermonville 30-08-2026 - 08:28 22.1°C / 69%
h2-hermonville 30-08-2026 - 08:23 17.5°C / 87%
h1-hermonville 30-08-2026 - 08:23 17.7°C / 86%
h3-hermonville 30-08-2026 - 08:19 17.5°C / 87%
h4-hermonville 30-08-2026 - 08:18 21°C / 73%
h1-hermonville 30-08-2026 - 08:13 17.6°C / 86.5%
h2-hermonville 30-08-2026 - 08:13 17.5°C / 87.5%
h3-hermonville 30-08-2026 - 08:09 17.4°C / 87.5%
h4-hermonville 30-08-2026 - 08:08 20.6°C / 75%
h1-hermonville 30-08-2026 - 08:03 17.5°C / 87%
h2-hermonville 30-08-2026 - 08:03 17.3°C / 88%
h3-hermonville 30-08-2026 - 07:59 17.1°C / 88%
h4-hermonville 30-08-2026 - 07:58 19°C / 81%
h2-hermonville 30-08-2026 - 07:53 17.2°C / 88.5%
h1-hermonville 30-08-2026 - 07:53 17.5°C / 87.5%
h3-hermonville 30-08-2026 - 07:49 17.1°C / 88.5%
h4-hermonville 30-08-2026 - 07:48 18°C / 84%
h1-hermonville 30-08-2026 - 07:43 17.5°C / 88%
h2-hermonville 30-08-2026 - 07:43 17.2°C / 89%
h3-hermonville 30-08-2026 - 07:39 17.1°C / 89%
h4-hermonville 30-08-2026 - 07:38 17.9°C / 84.5%
h1-hermonville 30-08-2026 - 07:33 17.5°C / 87.5%
h2-hermonville 30-08-2026 - 07:33 17.2°C / 88.5%
h3-hermonville 30-08-2026 - 07:29 17.1°C / 89%
h1-hermonville 30-08-2026 - 07:23 17.6°C / 87.5%
h2-hermonville 30-08-2026 - 07:23 17.2°C / 88.5%
h3-hermonville 30-08-2026 - 07:19 17.2°C / 89%
h4-hermonville 30-08-2026 - 07:18 17.8°C / 85%
h1-hermonville 30-08-2026 - 07:13 17.6°C / 87.5%
h3-hermonville 30-08-2026 - 07:09 17.1°C / 89%
h1-hermonville 30-08-2026 - 07:03 17.5°C / 88%
h2-hermonville 30-08-2026 - 07:03 17.2°C / 88.5%
h3-hermonville 30-08-2026 - 06:59 17.1°C / 89%
h4-hermonville 30-08-2026 - 06:58 17.8°C / 84.5%
h1-hermonville 30-08-2026 - 06:53 17.6°C / 87.5%
h2-hermonville 30-08-2026 - 06:53 17.2°C / 88.5%
h3-hermonville 30-08-2026 - 06:49 17.2°C / 89%
h4-hermonville 30-08-2026 - 06:48 17.8°C / 84.5%
h1-hermonville 30-08-2026 - 06:43 17.6°C / 87.5%
h2-hermonville 30-08-2026 - 06:43 17.3°C / 88%
h3-hermonville 30-08-2026 - 06:39 17.2°C / 88.5%
h4-hermonville 30-08-2026 - 06:38 18°C / 84.5%
h1-hermonville 30-08-2026 - 06:33 17.6°C / 87.5%
h2-hermonville 30-08-2026 - 06:33 17.4°C / 88%
h3-hermonville 30-08-2026 - 06:29 17.3°C / 88%
h4-hermonville 30-08-2026 - 06:28 18°C / 84.5%
h1-hermonville 30-08-2026 - 06:23 17.7°C / 87%
h2-hermonville 30-08-2026 - 06:23 17.6°C / 87.5%
h3-hermonville 30-08-2026 - 06:19 17.5°C / 87.5%
h4-hermonville 30-08-2026 - 06:18 18.1°C / 84.5%
h1-hermonville 30-08-2026 - 06:13 17.8°C / 87%
h2-hermonville 30-08-2026 - 06:13 17.6°C / 87.5%
h3-hermonville 30-08-2026 - 06:09 17.7°C / 87.5%
h4-hermonville 30-08-2026 - 06:08 18.2°C / 84.5%
h1-hermonville 30-08-2026 - 06:03 17.8°C / 87%
h3-hermonville 30-08-2026 - 05:59 17.7°C / 87.5%
h4-hermonville 30-08-2026 - 05:58 18.2°C / 84%
h1-hermonville 30-08-2026 - 05:53 18°C / 87%
h2-hermonville 30-08-2026 - 05:53 17.9°C / 87%
h3-hermonville 30-08-2026 - 05:49 17.8°C / 87%
h4-hermonville 30-08-2026 - 05:48 18.4°C / 84%
h1-hermonville 30-08-2026 - 05:43 18.1°C / 86.5%
h2-hermonville 30-08-2026 - 05:43 18.1°C / 86.5%
h3-hermonville 30-08-2026 - 05:39 18°C / 86.5%
h4-hermonville 30-08-2026 - 05:38 18.4°C / 83.5%
h1-hermonville 30-08-2026 - 05:33 18.2°C / 86%
h2-hermonville 30-08-2026 - 05:33 18.2°C / 85.5%
h3-hermonville 30-08-2026 - 05:29 18.2°C / 85.5%
h4-hermonville 30-08-2026 - 05:28 18.5°C / 83.5%
h1-hermonville 30-08-2026 - 05:23 18.3°C / 86%
h2-hermonville 30-08-2026 - 05:23 18.5°C / 85.5%
h3-hermonville 30-08-2026 - 05:19 18.3°C / 85.5%
h4-hermonville 30-08-2026 - 05:18 18.6°C / 83%
h1-hermonville 30-08-2026 - 05:13 18.4°C / 85.5%
h2-hermonville 30-08-2026 - 05:13 18.5°C / 85.5%
h3-hermonville 30-08-2026 - 05:09 18.4°C / 85%
h4-hermonville 30-08-2026 - 05:08 18.7°C / 83%
h1-hermonville 30-08-2026 - 05:03 18.5°C / 85%
h2-hermonville 30-08-2026 - 05:03 18.5°C / 85%
h3-hermonville 30-08-2026 - 04:59 18.3°C / 85%
h4-hermonville 30-08-2026 - 04:58 18.7°C / 83%
h1-hermonville 30-08-2026 - 04:53 18.4°C / 85%
h2-hermonville 30-08-2026 - 04:53 18.5°C / 85%
h3-hermonville 30-08-2026 - 04:49 18.5°C / 84.5%
h4-hermonville 30-08-2026 - 04:48 18.7°C / 83%
h1-hermonville 30-08-2026 - 04:43 18.7°C / 84.5%
h3-hermonville 30-08-2026 - 04:39 18.6°C / 84.5%
h4-hermonville 30-08-2026 - 04:38 18.7°C / 82.5%
h1-hermonville 30-08-2026 - 04:33 18.6°C / 84.5%
h2-hermonville 30-08-2026 - 04:33 18.6°C / 84.5%
h3-hermonville 30-08-2026 - 04:29 18.7°C / 84%
h4-hermonville 30-08-2026 - 04:28 18.7°C / 82.5%
h1-hermonville 30-08-2026 - 04:23 18.6°C / 84.5%
h2-hermonville 30-08-2026 - 04:23 18.7°C / 84%
h3-hermonville 30-08-2026 - 04:19 18.7°C / 84%
h4-hermonville 30-08-2026 - 04:18 18.7°C / 82.5%
h2-hermonville 30-08-2026 - 04:13 18.7°C / 84%
h3-hermonville 30-08-2026 - 04:09 18.8°C / 83.5%
h4-hermonville 30-08-2026 - 04:08 18.7°C / 82.5%
h1-hermonville 30-08-2026 - 04:03 18.6°C / 84.5%
h2-hermonville 30-08-2026 - 04:03 18.7°C / 84%
h3-hermonville 30-08-2026 - 03:59 18.7°C / 83.5%
h4-hermonville 30-08-2026 - 03:58 18.8°C / 82.5%
h1-hermonville 30-08-2026 - 03:53 18.8°C / 84.5%
h2-hermonville 30-08-2026 - 03:53 18.9°C / 84%
h3-hermonville 30-08-2026 - 03:49 18.9°C / 83%
h4-hermonville 30-08-2026 - 03:48 18.9°C / 82.5%
h1-hermonville 30-08-2026 - 03:43 18.8°C / 84.5%
h2-hermonville 30-08-2026 - 03:43 18.9°C / 84%
h3-hermonville 30-08-2026 - 03:39 18.8°C / 84%
h4-hermonville 30-08-2026 - 03:38 18.9°C / 83%
h1-hermonville 30-08-2026 - 03:33 18.7°C / 85%
h2-hermonville 30-08-2026 - 03:33 18.7°C / 84.5%
h3-hermonville 30-08-2026 - 03:29 18.7°C / 84%
h4-hermonville 30-08-2026 - 03:28 18.9°C / 83%
h1-hermonville 30-08-2026 - 03:23 18.7°C / 85%
h2-hermonville 30-08-2026 - 03:23 18.7°C / 85%
h3-hermonville 30-08-2026 - 03:19 18.7°C / 84.5%
h4-hermonville 30-08-2026 - 03:18 18.9°C / 83%
h1-hermonville 30-08-2026 - 03:13 18.7°C / 85.5%
h2-hermonville 30-08-2026 - 03:13 18.7°C / 85%
h3-hermonville 30-08-2026 - 03:09 18.7°C / 84.5%
h4-hermonville 30-08-2026 - 03:08 18.9°C / 83%
h1-hermonville 30-08-2026 - 03:03 18.7°C / 85.5%
h2-hermonville 30-08-2026 - 03:03 18.8°C / 85%
h3-hermonville 30-08-2026 - 02:59 18.9°C / 84.5%
h4-hermonville 30-08-2026 - 02:58 18.9°C / 83%
h1-hermonville 30-08-2026 - 02:53 18.7°C / 85%
h2-hermonville 30-08-2026 - 02:53 18.9°C / 84.5%
h3-hermonville 30-08-2026 - 02:49 19°C / 84%
h4-hermonville 30-08-2026 - 02:48 19°C / 83%
h1-hermonville 30-08-2026 - 02:43 18.8°C / 85%
h2-hermonville 30-08-2026 - 02:43 19°C / 84.5%
h3-hermonville 30-08-2026 - 02:39 19°C / 84%
h4-hermonville 30-08-2026 - 02:38 19.1°C / 82.5%
h1-hermonville 30-08-2026 - 02:33 19°C / 84.5%
h3-hermonville 30-08-2026 - 02:29 19°C / 83.5%
h4-hermonville 30-08-2026 - 02:28 19.1°C / 82.5%
h1-hermonville 30-08-2026 - 02:23 18.9°C / 84.5%
h2-hermonville 30-08-2026 - 02:23 19.1°C / 83.5%
h3-hermonville 30-08-2026 - 02:19 19°C / 83.5%
h4-hermonville 30-08-2026 - 02:18 19.2°C / 82.5%
h1-hermonville 30-08-2026 - 02:13 19°C / 84.5%
h2-hermonville 30-08-2026 - 02:13 19.1°C / 84%
h3-hermonville 30-08-2026 - 02:09 19.2°C / 83.5%
h4-hermonville 30-08-2026 - 02:08 19.1°C / 82.5%
h1-hermonville 30-08-2026 - 02:03 19.1°C / 84.5%
h2-hermonville 30-08-2026 - 02:03 19°C / 84%
h3-hermonville 30-08-2026 - 01:59 19.1°C / 83.5%
h4-hermonville 30-08-2026 - 01:58 19.2°C / 82.5%
h1-hermonville 30-08-2026 - 01:53 19°C / 84.5%
h2-hermonville 30-08-2026 - 01:53 19.1°C / 84%
h3-hermonville 30-08-2026 - 01:49 19.2°C / 83.5%
h4-hermonville 30-08-2026 - 01:48 19.2°C / 82.5%
h1-hermonville 30-08-2026 - 01:43 19.1°C / 84.5%
h2-hermonville 30-08-2026 - 01:43 19.1°C / 84%
h3-hermonville 30-08-2026 - 01:39 19.2°C / 83.5%
h4-hermonville 30-08-2026 - 01:38 19.2°C / 82.5%
h2-hermonville 30-08-2026 - 01:33 19.2°C / 84%
h3-hermonville 30-08-2026 - 01:29 19.2°C / 83.5%
h4-hermonville 30-08-2026 - 01:28 19.2°C / 82.5%
h1-hermonville 30-08-2026 - 01:23 19.1°C / 84.5%
h2-hermonville 30-08-2026 - 01:23 19.2°C / 83.5%
h3-hermonville 30-08-2026 - 01:19 19.3°C / 83%
h4-hermonville 30-08-2026 - 01:18 19.3°C / 82.5%
h1-hermonville 30-08-2026 - 01:13 19.2°C / 84.5%
h2-hermonville 30-08-2026 - 01:13 19.3°C / 84%
h3-hermonville 30-08-2026 - 01:09 19.3°C / 83.5%
h4-hermonville 30-08-2026 - 01:08 19.3°C / 82.5%
h1-hermonville 30-08-2026 - 01:03 19.3°C / 84.5%
h2-hermonville 30-08-2026 - 01:03 19.3°C / 83.5%
h3-hermonville 30-08-2026 - 00:59 19.3°C / 83.5%
h1-hermonville 30-08-2026 - 00:53 19.1°C / 85%
h2-hermonville 30-08-2026 - 00:53 19.3°C / 84%
h3-hermonville 30-08-2026 - 00:49 19.3°C / 83.5%
h4-hermonville 30-08-2026 - 00:48 19.3°C / 83%
h1-hermonville 30-08-2026 - 00:43 19.3°C / 85%
h2-hermonville 30-08-2026 - 00:43 19.4°C / 84%
h3-hermonville 30-08-2026 - 00:39 19.4°C / 84%
h4-hermonville 30-08-2026 - 00:38 19.3°C / 83%
h1-hermonville 30-08-2026 - 00:33 19.3°C / 85%
h2-hermonville 30-08-2026 - 00:33 19.4°C / 84.5%
h3-hermonville 30-08-2026 - 00:29 19.3°C / 84%
h4-hermonville 30-08-2026 - 00:28 19.3°C / 83.5%
h1-hermonville 30-08-2026 - 00:23 19.3°C / 85.5%
h2-hermonville 30-08-2026 - 00:23 19.4°C / 85%
h3-hermonville 30-08-2026 - 00:19 19.3°C / 84.5%
h4-hermonville 30-08-2026 - 00:18 19.3°C / 83.5%
h1-hermonville 30-08-2026 - 00:13 19.3°C / 85.5%
h2-hermonville 30-08-2026 - 00:13 19.3°C / 84.5%
h3-hermonville 30-08-2026 - 00:09 19.4°C / 84.5%
h4-hermonville 30-08-2026 - 00:08 19.4°C / 83.5%
h1-hermonville 30-08-2026 - 00:03 19.3°C / 85.5%
h2-hermonville 30-08-2026 - 00:03 19.4°C / 85%